Time;durP1;ratioP1;P1;durP2;ratioP2;P2;SDS_P1;SDS_P2;PMS_P1;PMS_P2;Temp;Humidity;BMP_temperature;BMP_pressure;BME280_temperature;BME280_humidity;BME280_pressure;Samples;Min_cycle;Max_cycle;Signal;HPM_P1;HPM_P2
2023/01/22 00:01:07;;;;;;;5.75;3.95;;;;;;;7.17;67.05;93675.78;4998663;28;20092;-79
2023/01/22 00:03:33;;;;;;;6.40;4.93;;;;;;;7.35;66.48;93676.75;4995548;28;20055;-78
2023/01/22 00:05:58;;;;;;;4.03;3.20;;;;;;;7.19;67.08;93672.88;4972307;28;20121;-78
2023/01/22 00:08:24;;;;;;;6.88;3.85;;;;;;;7.18;67.61;93689.81;4998707;28;20065;-78
2023/01/22 00:10:51;;;;;;;4.97;3.78;;;;;;;7.14;67.96;93675.59;4997754;28;20374;-77
2023/01/22 00:13:17;;;;;;;7.03;3.90;;;;;;;6.96;67.83;93652.66;4982570;28;20034;-78
2023/01/22 00:15:43;;;;;;;4.97;3.67;;;;;;;7.20;68.03;93690.28;4999154;28;20053;-79
2023/01/22 00:18:08;;;;;;;8.38;3.83;;;;;;;7.24;67.71;93680.66;4999628;28;20545;-78
2023/01/22 00:20:34;;;;;;;4.60;3.10;;;;;;;7.21;67.94;93670.69;4996513;28;20319;-79
2023/01/22 00:22:59;;;;;;;7.55;3.65;;;;;;;7.00;68.86;93670.28;4998748;28;20042;-80
2023/01/22 00:25:25;;;;;;;8.30;3.28;;;;;;;7.20;68.53;93669.13;4971062;28;20401;-78
2023/01/22 00:27:50;;;;;;;49.13;24.33;;;;;;;7.21;68.15;93660.13;4999219;28;20072;-78
2023/01/22 00:30:16;;;;;;;83.45;42.53;;;;;;;7.37;68.06;93674.59;5000101;28;20488;-79
2023/01/22 00:32:41;;;;;;;26.67;17.15;;;;;;;7.51;67.73;93685.94;4997942;28;20505;-79
2023/01/22 00:35:07;;;;;;;20.02;10.93;;;;;;;7.48;67.67;93693.72;4997776;28;20052;-78
2023/01/22 00:37:32;;;;;;;15.32;8.73;;;;;;;7.38;67.77;93676.19;4999306;28;20148;-79
2023/01/22 00:39:58;;;;;;;13.07;7.00;;;;;;;7.36;67.45;93670.38;4997672;28;20025;-79
2023/01/22 00:42:24;;;;;;;11.30;4.80;;;;;;;7.57;66.81;93684.00;4976784;28;20049;-78
2023/01/22 00:44:50;;;;;;;9.00;6.15;;;;;;;7.07;67.55;93638.97;4999663;28;20121;-79
2023/01/22 00:47:15;;;;;;;9.23;5.70;;;;;;;7.17;67.69;93672.38;4997710;28;20116;-78
2023/01/22 00:49:40;;;;;;;5.80;4.65;;;;;;;7.26;67.62;93681.97;4998189;28;20456;-78
2023/01/22 00:52:06;;;;;;;7.97;4.53;;;;;;;7.22;67.38;93674.91;4998917;28;20067;-80
2023/01/22 00:54:32;;;;;;;5.93;4.65;;;;;;;7.17;67.30;93685.59;4980987;28;20124;-79
2023/01/22 00:56:57;;;;;;;4.25;1.98;;;;;;;7.01;67.37;93666.59;4999963;28;20069;-79
2023/01/22 00:59:22;;;;;;;4.72;2.08;;;;;;;7.24;66.78;93694.69;4998449;28;20466;-79
2023/01/22 01:01:48;;;;;;;4.03;1.95;;;;;;;7.24;67.23;93694.69;4998256;28;20038;-78
2023/01/22 01:04:13;;;;;;;3.45;1.75;;;;;;;7.27;66.50;93703.91;4979562;28;20510;-78
2023/01/22 01:06:39;;;;;;;2.47;1.13;;;;;;;7.20;66.99;93714.09;4997410;28;20121;-79
2023/01/22 01:09:04;;;;;;;1.35;1.25;;;;;;;7.11;66.95;93713.19;4978945;28;21525;-80
2023/01/22 01:11:30;;;;;;;2.17;1.50;;;;;;;6.62;67.51;93667.03;4997165;28;20120;-79
2023/01/22 01:13:56;;;;;;;4.80;1.90;;;;;;;6.88;67.21;93699.09;4996573;28;20623;-78
2023/01/22 01:16:28;;;;;;;2.08;1.90;;;;;;;7.21;66.51;93728.88;4970962;28;20034;-79
2023/01/22 01:19:01;;;;;;;3.05;2.33;;;;;;;7.30;65.83;93732.41;4975245;28;20060;-78
2023/01/22 01:21:27;;;;;;;5.03;2.70;;;;;;;7.10;66.97;93738.06;4999284;28;20025;-79
2023/01/22 01:23:58;;;;;;;7.28;4.72;;;;;;;6.69;67.90;93712.38;4996275;28;20089;-78
2023/01/22 01:26:24;;;;;;;13.00;7.93;;;;;;;6.70;68.94;93729.78;4996749;28;20052;-78
2023/01/22 01:28:51;;;;;;;8.90;3.78;;;;;;;6.76;69.11;93725.19;4996450;28;20042;-79
2023/01/22 01:31:17;;;;;;;3.13;1.67;;;;;;;6.85;68.51;93734.81;4999397;28;20034;-79
2023/01/22 01:33:43;;;;;;;2.17;1.38;;;;;;;7.03;66.81;93725.25;4996614;28;20041;-79
2023/01/22 01:36:12;;;;;;;3.65;1.63;;;;;;;7.06;66.87;93742.38;4998275;28;20046;-81
2023/01/22 01:38:37;;;;;;;2.13;1.92;;;;;;;7.02;67.96;93757.28;4981507;28;20034;-80
2023/01/22 01:41:03;;;;;;;4.43;1.80;;;;;;;6.78;68.09;93726.50;4998305;28;20048;-80
2023/01/22 01:43:29;;;;;;;3.05;1.33;;;;;;;6.93;68.33;93756.38;4975093;28;20557;-78
2023/01/22 01:45:59;;;;;;;6.97;1.58;;;;;;;7.00;68.07;93752.25;4996447;28;20577;-80
2023/01/22 01:48:40;;;;;;;1.80;1.40;;;;;;;6.97;68.61;93752.06;4998835;28;20360;-80
2023/01/22 01:51:16;;;;;;;1.77;1.33;;;;;;;6.88;68.94;93744.03;4970623;28;20120;-79
2023/01/22 01:53:44;;;;;;;1.33;1.23;;;;;;;6.94;68.56;93750.03;4998270;28;20599;-79
2023/01/22 01:56:15;;;;;;;1.98;1.33;;;;;;;6.74;69.18;93733.44;4996700;28;20065;-79
2023/01/22 01:58:43;;;;;;;3.45;1.45;;;;;;;6.69;69.50;93741.44;4997427;28;20034;-79
2023/01/22 02:01:16;;;;;;;2.53;1.42;;;;;;;6.63;69.62;93739.97;4994699;28;20537;-80
2023/01/22 02:03:43;;;;;;;3.47;1.23;;;;;;;6.73;69.27;93739.78;4982527;28;20099;-79
2023/01/22 02:06:18;;;;;;;3.15;1.45;;;;;;;6.62;68.84;93711.97;4994202;28;20640;-79
2023/01/22 02:08:46;;;;;;;2.20;1.20;;;;;;;6.62;69.19;93721.75;4973819;28;20656;-79
2023/01/22 02:11:12;;;;;;;1.70;1.20;;;;;;;6.75;69.01;93740.28;4994810;28;20034;-79
2023/01/22 02:13:43;;;;;;;3.28;1.45;;;;;;;6.64;69.02;93723.03;4977053;28;20084;-79
2023/01/22 02:16:10;;;;;;;2.83;1.48;;;;;;;6.88;68.67;93751.19;4992414;28;20092;-82
2023/01/22 02:18:35;;;;;;;1.20;1.05;;;;;;;6.87;68.50;93753.03;4996622;28;20053;-79
2023/01/22 02:21:01;;;;;;;1.50;1.20;;;;;;;6.73;68.28;93723.94;4998803;28;20124;-79
2023/01/22 02:23:28;;;;;;;4.38;1.10;;;;;;;6.89;68.50;93745.59;4997861;28;20494;-79
2023/01/22 02:25:54;;;;;;;5.22;1.50;;;;;;;6.93;68.52;93743.16;5001413;28;20030;-79
2023/01/22 02:28:21;;;;;;;3.33;1.38;;;;;;;6.81;68.49;93733.03;4981914;28;20037;-80
2023/01/22 02:30:46;;;;;;;2.33;1.35;;;;;;;6.67;69.27;93730.38;5001183;28;20037;-80
2023/01/22 02:33:12;;;;;;;1.88;1.23;;;;;;;6.77;69.67;93751.34;5002044;28;20457;-79
2023/01/22 02:35:37;;;;;;;2.75;2.45;;;;;;;6.64;69.96;93740.75;5001047;28;20363;-80
2023/01/22 02:38:03;;;;;;;2.58;2.25;;;;;;;6.09;72.84;93755.56;5001299;28;20518;-79
2023/01/22 02:40:28;;;;;;;5.40;1.88;;;;;;;6.38;71.53;93753.56;4999895;28;20029;-78
2023/01/22 02:42:55;;;;;;;1.33;1.20;;;;;;;6.67;69.78;93756.00;4984070;28;20437;-80
2023/01/22 02:45:21;;;;;;;2.10;1.65;;;;;;;6.81;69.46;93751.53;5001126;28;20663;-79
2023/01/22 02:47:46;;;;;;;1.92;1.40;;;;;;;6.82;69.17;93761.84;5001176;28;20035;-79
2023/01/22 02:50:12;;;;;;;4.72;1.58;;;;;;;6.77;69.14;93747.91;4983517;28;20409;-80
2023/01/22 02:52:37;;;;;;;1.25;1.13;;;;;;;6.81;69.01;93748.91;5000630;28;20123;-79
2023/01/22 02:55:03;;;;;;;3.25;1.52;;;;;;;6.94;69.12;93774.59;4998052;28;20061;-80
2023/01/22 02:57:30;;;;;;;4.13;1.10;;;;;;;6.83;69.41;93775.84;5001395;28;20026;-80
2023/01/22 02:59:56;;;;;;;1.40;1.30;;;;;;;6.87;69.16;93771.53;5002329;28;20703;-79
2023/01/22 03:02:21;;;;;;;5.03;1.70;;;;;;;6.46;70.25;93734.41;5001741;28;20044;-79
2023/01/22 03:04:48;;;;;;;2.50;1.60;;;;;;;6.55;70.75;93742.50;5000505;28;20380;-80
2023/01/22 03:07:18;;;;;;;2.30;1.10;;;;;;;6.42;70.57;93717.56;5000267;28;20057;-79
2023/01/22 03:09:44;;;;;;;1.08;0.70;;;;;;;6.71;69.73;93741.13;5001144;28;20044;-80
2023/01/22 03:12:11;;;;;;;1.25;1.15;;;;;;;6.69;70.11;93743.31;5000318;28;20045;-79
2023/01/22 03:22:49;;;;;;;2.40;1.30;;;;;;;6.19;72.06;93723.75;4999029;28;20505;-80
2023/01/22 03:25:14;;;;;;;2.45;1.15;;;;;;;6.47;71.38;93751.06;5000750;28;20061;-79
2023/01/22 03:28:07;;;;;;;0.95;0.80;;;;;;;6.30;71.04;93752.38;5000091;28;20481;-79
2023/01/22 03:30:26;;;;;;;1.00;1.00;;;;;;;6.06;71.72;93761.41;5001147;28;20042;-79
2023/01/22 03:32:51;;;;;;;3.05;1.92;;;;;;;5.82;72.13;93730.56;5000942;28;20052;-79
2023/01/22 03:35:16;;;;;;;4.78;2.00;;;;;;;6.08;71.91;93770.63;4998748;28;20132;-79
2023/01/22 03:37:42;;;;;;;2.33;2.10;;;;;;;6.38;70.86;93764.13;4980693;28;20033;-80
2023/01/22 03:40:08;;;;;;;2.05;1.70;;;;;;;6.37;70.06;93758.06;4998073;28;20647;-80
2023/01/22 03:42:34;;;;;;;4.60;1.90;;;;;;;6.49;69.54;93765.56;5000775;28;20037;-79
2023/01/22 03:44:59;;;;;;;5.10;1.75;;;;;;;6.54;68.77;93752.28;4974272;28;20073;-81
2023/01/22 03:47:24;;;;;;;4.97;2.50;;;;;;;6.55;68.70;93772.34;5000752;28;20038;-80
2023/01/22 03:49:50;;;;;;;3.03;1.92;;;;;;;6.68;68.21;93778.72;4997473;28;20038;-79
2023/01/22 03:52:15;;;;;;;6.65;2.47;;;;;;;6.54;67.88;93748.84;4999610;28;20065;-79
2023/01/22 03:54:40;;;;;;;3.40;2.00;;;;;;;6.74;67.58;93773.09;4998968;28;20355;-79
2023/01/22 03:57:06;;;;;;;3.60;2.38;;;;;;;6.70;67.48;93764.13;4971567;28;20046;-78
2023/01/22 03:59:31;;;;;;;5.85;2.83;;;;;;;6.85;66.88;93777.09;4999673;28;20045;-79
2023/01/22 04:01:57;;;;;;;5.97;2.45;;;;;;;6.98;67.41;93775.59;4997856;28;20049;-80
2023/01/22 04:04:22;;;;;;;3.72;2.55;;;;;;;6.81;67.67;93754.19;4999822;28;20651;-79
2023/01/22 04:06:47;;;;;;;4.05;2.78;;;;;;;6.90;66.86;93756.97;4997722;28;20286;-79
2023/01/22 04:09:14;;;;;;;5.57;3.45;;;;;;;7.13;66.76;93783.25;4983132;28;20456;-79
2023/01/22 04:11:40;;;;;;;6.75;4.20;;;;;;;7.22;65.55;93778.06;4998312;28;20132;-79
2023/01/22 04:14:05;;;;;;;9.82;4.43;;;;;;;7.07;65.85;93775.69;4999474;28;20041;-79
2023/01/22 04:16:30;;;;;;;4.40;2.95;;;;;;;6.93;66.68;93780.16;4998983;28;20497;-80
2023/01/22 04:18:56;;;;;;;3.70;2.40;;;;;;;6.93;66.01;93774.88;4998770;28;20036;-79
2023/01/22 04:21:22;;;;;;;3.75;2.65;;;;;;;6.89;66.72;93787.13;4981559;28;20025;-79
2023/01/22 04:23:47;;;;;;;4.47;2.28;;;;;;;6.66;67.35;93776.38;4998568;28;20101;-78
2023/01/22 04:26:13;;;;;;;3.25;2.05;;;;;;;6.77;66.88;93782.28;4979912;28;20088;-80
2023/01/22 04:28:38;;;;;;;3.92;2.00;;;;;;;6.68;66.71;93768.94;4998894;28;20045;-81
2023/01/22 04:31:04;;;;;;;4.78;1.92;;;;;;;6.90;65.96;93802.66;5000059;28;20068;-79
2023/01/22 04:33:30;;;;;;;1.75;1.65;;;;;;;6.82;65.84;93796.19;4997215;28;20556;-79
2023/01/22 04:35:55;;;;;;;2.95;1.98;;;;;;;6.52;66.04;93770.25;4998899;28;20571;-79
2023/01/22 04:38:21;;;;;;;3.13;1.83;;;;;;;6.71;66.07;93786.06;4998551;28;20034;-79
2023/01/22 04:40:47;;;;;;;3.42;2.13;;;;;;;6.75;65.64;93787.09;4997061;28;20701;-80
2023/01/22 04:43:12;;;;;;;2.10;1.65;;;;;;;6.86;65.34;93813.06;4998509;28;20042;-81
2023/01/22 04:45:38;;;;;;;4.25;2.10;;;;;;;6.77;65.03;93806.84;4999041;28;20080;-79
2023/01/22 04:48:03;;;;;;;5.47;2.25;;;;;;;7.00;64.13;93818.38;4997650;28;20715;-79
2023/01/22 04:50:31;;;;;;;2.53;1.50;;;;;;;6.98;63.81;93825.03;4981683;28;20034;-79
2023/01/22 04:52:57;;;;;;;1.60;1.20;;;;;;;6.86;63.81;93810.41;4999773;28;20041;-79
2023/01/22 04:55:24;;;;;;;2.33;1.15;;;;;;;6.85;63.59;93826.53;4979790;28;20113;-78
2023/01/22 04:57:52;;;;;;;2.65;1.20;;;;;;;6.71;64.41;93831.78;4980947;28;20028;-80
2023/01/22 05:00:18;;;;;;;1.52;1.10;;;;;;;6.50;64.42;93819.97;4997110;28;20544;-78
2023/01/22 05:02:43;;;;;;;2.08;1.17;;;;;;;6.49;64.63;93821.03;4981432;28;20042;-78
2023/01/22 05:05:09;;;;;;;3.97;2.72;;;;;;;6.34;65.08;93822.03;4997720;28;20034;-79
2023/01/22 05:07:34;;;;;;;5.35;3.78;;;;;;;6.42;64.51;93839.88;5000430;28;20038;-79
2023/01/22 05:10:00;;;;;;;4.10;3.13;;;;;;;6.38;64.49;93848.66;4996480;28;20025;-80
2023/01/22 05:12:25;;;;;;;3.97;2.63;;;;;;;6.55;63.30;93846.31;4998596;28;20354;-81
2023/01/22 05:14:50;;;;;;;11.05;6.43;;;;;;;6.64;63.37;93863.09;4996322;28;20040;-80
2023/01/22 05:17:17;;;;;;;5.53;4.07;;;;;;;6.52;63.91;93864.59;4997892;28;20053;-79
2023/01/22 05:19:42;;;;;;;6.22;4.13;;;;;;;6.48;63.83;93871.50;4997494;28;20040;-81
2023/01/22 05:22:08;;;;;;;5.47;2.53;;;;;;;6.20;64.35;93860.81;4998693;28;20034;-79
2023/01/22 05:24:33;;;;;;;3.03;1.90;;;;;;;6.11;65.69;93880.16;4978657;28;20121;-79
2023/01/22 05:26:58;;;;;;;4.68;2.80;;;;;;;5.87;66.16;93849.28;4999603;28;20676;-80
2023/01/22 05:29:25;;;;;;;18.13;10.02;;;;;;;6.07;66.55;93884.44;4998190;28;20127;-79
2023/01/22 05:31:55;;;;;;;6.38;3.95;;;;;;;6.04;66.31;93895.56;4997301;28;20569;-79
2023/01/22 05:34:21;;;;;;;5.20;3.08;;;;;;;5.86;67.53;93886.53;4997275;28;20066;-78
2023/01/22 05:36:47;;;;;;;4.15;2.42;;;;;;;5.89;67.39;93889.38;4998186;28;20308;-79
2023/01/22 05:39:13;;;;;;;2.92;2.40;;;;;;;5.99;67.43;93904.31;4998263;28;20044;-80
2023/01/22 05:41:39;;;;;;;4.95;4.18;;;;;;;5.90;67.44;93893.59;4997402;28;20106;-80
2023/01/22 05:44:05;;;;;;;4.88;3.03;;;;;;;5.99;67.72;93913.03;4979410;28;20674;-80
2023/01/22 05:46:31;;;;;;;6.03;2.38;;;;;;;6.05;66.98;93918.25;4998257;28;20128;-80
2023/01/22 05:48:56;;;;;;;2.45;1.80;;;;;;;6.11;66.66;93919.78;4997723;28;20026;-79
2023/01/22 05:51:22;;;;;;;2.55;1.73;;;;;;;6.05;66.42;93920.91;4999736;28;20048;-79
2023/01/22 05:53:47;;;;;;;2.60;1.88;;;;;;;6.06;66.46;93933.03;4996572;28;20088;-80
2023/01/22 05:56:13;;;;;;;3.35;2.30;;;;;;;5.85;66.84;93898.94;4996969;28;20399;-79
2023/01/22 05:58:38;;;;;;;2.10;1.67;;;;;;;5.99;65.83;93905.13;4997309;28;20044;-79
2023/01/22 06:01:04;;;;;;;2.72;1.70;;;;;;;6.20;65.49;93928.69;4996497;28;20405;-79
2023/01/22 06:03:29;;;;;;;13.93;9.90;;;;;;;5.97;66.37;93931.00;4997665;28;20033;-79
2023/01/22 06:05:59;;;;;;;12.95;8.00;;;;;;;5.90;67.29;93949.03;4998054;28;20032;-80
2023/01/22 06:08:25;;;;;;;9.30;5.53;;;;;;;5.79;67.59;93952.84;4995965;28;20584;-80
2023/01/22 06:10:50;;;;;;;9.30;6.45;;;;;;;5.80;67.73;93953.63;4997971;28;20038;-79
2023/01/22 06:13:15;;;;;;;13.85;6.28;;;;;;;5.93;67.34;93956.38;4997497;28;20113;-79
2023/01/22 06:15:42;;;;;;;13.40;8.10;;;;;;;6.02;66.89;93966.34;4998350;28;20517;-79
2023/01/22 06:18:08;;;;;;;11.90;7.75;;;;;;;5.88;67.48;93947.72;4992488;28;20030;-79
2023/01/22 06:20:33;;;;;;;16.08;9.57;;;;;;;5.91;67.88;93949.84;4993792;28;20033;-79
2023/01/22 06:22:59;;;;;;;12.32;8.90;;;;;;;6.07;67.53;93971.59;4994192;28;20414;-81
2023/01/22 06:25:24;;;;;;;12.70;7.05;;;;;;;5.86;67.57;93941.97;4994297;28;20072;-79
2023/01/22 06:27:49;;;;;;;9.32;4.68;;;;;;;6.10;67.47;93973.66;4991938;28;20468;-80
2023/01/22 06:30:15;;;;;;;10.05;5.18;;;;;;;6.10;67.65;93985.00;4999384;28;20022;-80
2023/01/22 06:32:40;;;;;;;8.60;4.95;;;;;;;5.99;67.92;93960.56;4995756;28;20591;-80
2023/01/22 06:35:06;;;;;;;148.43;83.35;;;;;;;6.26;67.22;93977.75;4981121;28;20038;-80
2023/01/22 06:37:31;;;;;;;27.45;15.65;;;;;;;6.44;67.10;93984.91;4978359;28;20171;-80
2023/01/22 06:39:57;;;;;;;11.05;7.25;;;;;;;6.27;67.56;93976.66;4997531;28;20026;-80
2023/01/22 06:42:22;;;;;;;8.45;6.50;;;;;;;6.19;68.15;93980.72;4998817;28;20558;-79
2023/01/22 06:44:49;;;;;;;9.48;6.03;;;;;;;6.20;68.64;93978.84;4978598;28;20096;-81
2023/01/22 06:47:15;;;;;;;20.20;15.05;;;;;;;6.28;68.52;93988.78;4977527;28;20058;-80
2023/01/22 06:49:40;;;;;;;27.13;20.13;;;;;;;6.27;69.32;94000.41;4993474;28;20365;-80
2023/01/22 06:52:06;;;;;;;18.02;10.70;;;;;;;6.27;69.02;93997.78;4994647;28;20453;-79
2023/01/22 06:54:31;;;;;;;17.10;11.60;;;;;;;6.34;69.31;94011.44;4976418;28;20034;-79
2023/01/22 06:56:56;;;;;;;14.43;10.05;;;;;;;6.16;70.38;94009.53;4977007;28;20040;-79
2023/01/22 06:59:22;;;;;;;15.60;9.93;;;;;;;5.58;72.91;93977.84;4976416;28;20916;-79
2023/01/22 07:01:47;;;;;;;14.80;10.43;;;;;;;6.10;71.78;94007.97;4994668;28;20042;-80
2023/01/22 07:04:12;;;;;;;21.10;13.15;;;;;;;6.34;71.01;94014.09;4975892;28;20648;-79
2023/01/22 07:06:38;;;;;;;19.58;12.70;;;;;;;6.41;70.77;94014.53;4994035;28;20022;-79
2023/01/22 07:09:03;;;;;;;18.30;13.65;;;;;;;6.21;71.46;94006.84;4992749;28;20068;-80
2023/01/22 07:11:29;;;;;;;20.58;12.65;;;;;;;6.41;70.69;94006.59;4994401;28;20034;-81
2023/01/22 07:13:54;;;;;;;16.63;13.75;;;;;;;6.64;69.92;94016.38;4998412;28;20081;-81
2023/01/22 07:16:19;;;;;;;22.33;17.00;;;;;;;6.68;69.34;94012.09;4997726;28;20112;-80
2023/01/22 07:18:45;;;;;;;29.77;18.33;;;;;;;6.74;69.67;94012.81;5000834;28;20025;-79
2023/01/22 07:21:11;;;;;;;32.47;21.75;;;;;;;6.92;69.18;94013.91;4997086;28;20054;-80
2023/01/22 07:23:36;;;;;;;27.65;19.92;;;;;;;6.84;69.23;94018.78;5000196;28;20029;-79
2023/01/22 07:26:01;;;;;;;27.25;18.27;;;;;;;6.91;69.34;94034.28;4998616;28;20068;-79
2023/01/22 07:28:27;;;;;;;27.13;18.55;;;;;;;6.86;69.89;94040.41;4999889;28;20044;-79
2023/01/22 07:30:52;;;;;;;28.27;18.75;;;;;;;6.92;68.53;94021.84;5000447;28;20140;-79
2023/01/22 07:33:18;;;;;;;25.92;19.45;;;;;;;7.08;68.20;94042.53;4998600;28;20484;-79
2023/01/22 07:35:44;;;;;;;30.48;18.38;;;;;;;7.12;67.86;94026.88;5000605;28;20042;-79
2023/01/22 07:38:09;;;;;;;27.90;19.10;;;;;;;7.04;67.97;94024.88;4999400;28;20303;-79
2023/01/22 07:40:35;;;;;;;24.25;16.63;;;;;;;7.10;68.40;94039.56;4998490;28;20033;-79
2023/01/22 07:43:05;;;;;;;22.83;16.30;;;;;;;7.15;68.43;94042.16;4997606;28;20026;-78
2023/01/22 07:45:30;;;;;;;22.25;15.45;;;;;;;7.09;68.34;94032.72;4998447;28;20026;-80
2023/01/22 07:47:57;;;;;;;21.42;12.88;;;;;;;7.14;68.77;94035.31;4997207;28;20042;-80
2023/01/22 07:50:28;;;;;;;15.55;11.25;;;;;;;7.26;67.19;94022.41;4999505;28;20069;-79
2023/01/22 07:52:54;;;;;;;18.08;11.35;;;;;;;7.27;68.03;94037.22;4980777;28;20041;-79
2023/01/22 07:55:20;;;;;;;12.82;10.10;;;;;;;7.19;68.28;94022.00;4997674;28;20391;-79
2023/01/22 07:57:46;;;;;;;12.85;9.98;;;;;;;7.27;68.66;94026.66;4998767;28;20112;-79
2023/01/22 08:00:14;;;;;;;14.73;9.43;;;;;;;7.35;68.36;94026.00;4995025;28;20462;-79
2023/01/22 08:02:41;;;;;;;11.85;7.65;;;;;;;7.42;67.23;94029.06;4979321;28;20369;-78
2023/01/22 08:05:07;;;;;;;12.93;7.68;;;;;;;7.18;67.80;94031.00;4998754;28;20034;-79
2023/01/22 08:07:33;;;;;;;11.75;7.57;;;;;;;6.85;69.49;94038.84;4998679;28;20030;-79
2023/01/22 08:09:58;;;;;;;9.45;7.47;;;;;;;6.72;71.14;94044.03;4972947;28;20109;-80
2023/01/22 08:12:24;;;;;;;10.73;8.48;;;;;;;6.94;70.46;94040.88;4994624;28;20085;-78
2023/01/22 08:14:49;;;;;;;15.25;10.82;;;;;;;7.03;70.43;94033.88;4990301;28;20597;-78
2023/01/22 08:17:15;;;;;;;22.85;16.60;;;;;;;6.40;74.34;94042.81;4994139;28;20034;-79
2023/01/22 08:19:40;;;;;;;27.17;17.15;;;;;;;6.35;75.30;94042.09;4991502;28;20913;-78
2023/01/22 08:22:06;;;;;;;24.90;18.63;;;;;;;6.44;74.88;94035.13;4972066;28;20040;-78
2023/01/22 08:24:33;;;;;;;29.00;20.88;;;;;;;6.63;74.34;94053.66;4987187;28;20034;-79
2023/01/22 08:26:58;;;;;;;25.73;19.08;;;;;;;6.77;74.46;94057.97;4994278;28;20042;-79
2023/01/22 08:29:24;;;;;;;24.60;18.48;;;;;;;6.55;74.69;94039.22;4996734;28;20095;-79
2023/01/22 08:31:49;;;;;;;28.75;21.35;;;;;;;6.95;73.85;94058.28;4994368;28;20048;-79
2023/01/22 08:34:15;;;;;;;29.58;20.27;;;;;;;6.50;76.09;94068.34;4988819;28;21015;-76
2023/01/22 08:36:41;;;;;;;27.90;18.92;;;;;;;5.72;78.45;94057.97;4974196;28;20087;-80
2023/01/22 08:39:06;;;;;;;30.48;20.10;;;;;;;5.56;79.04;94061.78;4988497;28;20124;-81
2023/01/22 08:41:32;;;;;;;29.77;20.95;;;;;;;5.13;79.92;94066.81;4990700;28;20528;-80
2023/01/22 08:43:57;;;;;;;29.85;20.73;;;;;;;5.07;80.89;94067.88;4991882;28;20049;-80
2023/01/22 08:46:22;;;;;;;29.90;20.95;;;;;;;5.14;80.73;94041.19;4980813;28;20063;-81
2023/01/22 08:48:49;;;;;;;27.45;20.45;;;;;;;5.22;81.63;94058.31;4996011;28;20519;-80
2023/01/22 08:51:15;;;;;;;32.88;21.65;;;;;;;5.52;81.27;94058.09;4980843;28;20096;-79
2023/01/22 08:53:40;;;;;;;32.95;20.65;;;;;;;5.51;80.66;94046.78;4996378;28;21135;-80
2023/01/22 08:56:06;;;;;;;30.30;19.80;;;;;;;5.81;79.88;94069.50;4998226;28;20119;-78
2023/01/22 08:58:32;;;;;;;28.50;17.70;;;;;;;5.07;80.63;94059.97;4992581;28;20516;-77
2023/01/22 09:00:57;;;;;;;28.50;17.85;;;;;;;5.09;81.01;94076.28;4973188;28;20049;-76
2023/01/22 09:03:23;;;;;;;26.98;18.85;;;;;;;4.76;82.45;94052.47;4993325;28;20022;-77
2023/01/22 09:05:49;;;;;;;32.17;21.83;;;;;;;4.68;83.25;94064.38;4995516;28;20049;-77
2023/01/22 09:08:15;;;;;;;31.88;20.65;;;;;;;4.85;84.00;94070.09;4995520;28;20030;-77
2023/01/22 09:10:42;;;;;;;33.42;21.75;;;;;;;5.01;83.42;94079.50;4995762;28;20540;-77
2023/01/22 09:13:07;;;;;;;31.58;22.23;;;;;;;4.94;83.60;94065.81;4970408;28;20049;-76
2023/01/22 09:15:33;;;;;;;35.85;24.15;;;;;;;4.93;83.45;94050.31;4991015;28;20660;-76
2023/01/22 09:17:59;;;;;;;31.20;21.95;;;;;;;4.75;83.20;94059.59;4992160;28;20487;-77
2023/01/22 09:20:24;;;;;;;39.80;23.42;;;;;;;4.80;84.07;94075.38;4985552;28;20060;-76
2023/01/22 09:22:50;;;;;;;34.00;21.98;;;;;;;4.83;84.54;94072.22;4953726;28;20050;-76
2023/01/22 09:25:15;;;;;;;35.35;22.33;;;;;;;4.74;83.59;94042.22;4972098;28;20041;-76
2023/01/22 09:27:41;;;;;;;31.60;21.50;;;;;;;4.92;83.09;94070.59;4982956;28;20025;-76
2023/01/22 09:30:08;;;;;;;28.02;20.52;;;;;;;4.96;83.49;94060.28;4987092;28;20049;-76
2023/01/22 09:32:35;;;;;;;30.23;21.90;;;;;;;4.92;83.30;94067.97;4969679;28;20038;-77
2023/01/22 09:35:01;;;;;;;33.65;20.25;;;;;;;4.79;84.03;94076.47;4991383;28;20038;-76
2023/01/22 09:37:26;;;;;;;28.38;21.13;;;;;;;5.12;83.29;94067.06;4988187;28;20053;-76
2023/01/22 09:39:52;;;;;;;29.00;19.38;;;;;;;5.10;82.48;94062.06;4990713;28;20026;-76
2023/01/22 09:42:27;;;;;;;32.35;20.27;;;;;;;5.30;81.79;94063.00;4973983;28;20076;-77
2023/01/22 09:45:02;;;;;;;25.70;18.00;;;;;;;5.60;80.80;94070.72;4968653;28;20188;-77
2023/01/22 09:47:43;;;;;;;26.52;17.77;;;;;;;5.96;79.41;94061.44;4951165;28;20041;-76
2023/01/22 09:50:30;;;;;;;27.25;17.60;;;;;;;6.30;78.47;94060.63;4958959;28;20041;-76
2023/01/22 09:53:00;;;;;;;25.23;16.67;;;;;;;6.61;77.12;94045.22;4977580;28;20498;-77
2023/01/22 09:55:35;;;;;;;23.20;15.98;;;;;;;7.11;75.45;94062.31;4959219;28;20495;-76
2023/01/22 09:58:04;;;;;;;22.00;14.05;;;;;;;7.36;72.88;94058.53;4967825;28;20161;-76
2023/01/22 10:00:51;;;;;;;14.98;9.48;;;;;;;6.87;70.94;94067.63;4975801;28;20084;-76
2023/01/22 10:03:33;;;;;;;15.18;9.85;;;;;;;7.00;71.38;94060.84;4958339;28;20128;-76
2023/01/22 10:06:03;;;;;;;18.92;9.55;;;;;;;7.16;71.00;94046.38;4948584;28;20787;-75
2023/01/22 10:08:45;;;;;;;11.48;7.53;;;;;;;6.68;70.24;94043.81;4973478;28;20541;-75
2023/01/22 10:11:11;;;;;;;8.20;5.75;;;;;;;6.58;70.04;94049.22;4972362;28;20061;-76
2023/01/22 10:13:37;;;;;;;5.68;4.03;;;;;;;6.77;69.88;94041.31;4977592;28;20100;-77
2023/01/22 10:16:04;;;;;;;6.55;3.47;;;;;;;7.05;67.82;94055.50;4976634;28;20150;-76
2023/01/22 10:18:52;;;;;;;8.10;3.85;;;;;;;7.15;67.99;94058.03;4973094;28;20149;-76
2023/01/22 10:21:22;;;;;;;5.65;4.05;;;;;;;7.29;66.71;94058.88;4968118;28;20614;-76
2023/01/22 10:23:49;;;;;;;24.60;15.55;;;;;;;7.41;72.48;94053.16;4948661;28;20056;-75
2023/01/22 10:26:31;;;;;;;21.63;14.77;;;;;;;7.18;73.77;94062.75;4970079;28;20042;-75
2023/01/22 10:29:02;;;;;;;19.33;12.68;;;;;;;7.07;73.03;94026.94;4971492;28;20473;-75
2023/01/22 10:31:32;;;;;;;18.02;11.48;;;;;;;7.22;73.91;94048.66;4970742;28;20037;-76
2023/01/22 10:34:00;;;;;;;11.65;8.45;;;;;;;7.14;72.42;94057.22;4954814;28;20026;-76
2023/01/22 10:36:26;;;;;;;9.52;7.03;;;;;;;6.96;71.54;94049.28;4972289;28;20408;-76
2023/01/22 10:39:10;;;;;;;12.45;7.43;;;;;;;6.76;71.83;94043.19;4952705;28;20069;-76
2023/01/22 10:41:35;;;;;;;10.63;6.72;;;;;;;6.99;71.85;94064.59;4955527;28;20124;-75
2023/01/22 10:44:19;;;;;;;14.23;7.22;;;;;;;7.05;72.93;94068.72;4958629;28;20040;-75
2023/01/22 10:46:45;;;;;;;11.07;7.70;;;;;;;7.13;71.99;94062.81;4973903;28;20041;-74
2023/01/22 10:49:34;;;;;;;13.60;8.65;;;;;;;7.05;72.11;94037.78;4974052;28;20056;-76
2023/01/22 10:52:05;;;;;;;11.45;7.20;;;;;;;7.00;72.37;94061.66;4974014;28;20053;-75
2023/01/22 10:54:35;;;;;;;10.32;7.05;;;;;;;6.72;72.23;94031.59;4975538;28;20130;-75
2023/01/22 10:57:30;;;;;;;9.18;6.78;;;;;;;6.82;72.63;94060.56;4973333;28;20537;-75
2023/01/22 11:00:20;;;;;;;5.60;4.57;;;;;;;6.57;72.48;94052.91;4956519;28;20045;-76
2023/01/22 11:02:48;;;;;;;7.47;4.82;;;;;;;6.60;72.81;94055.03;4958554;28;20038;-75
2023/01/22 11:05:25;;;;;;;7.72;5.43;;;;;;;6.66;72.16;94061.81;4953202;28;20398;-76
2023/01/22 11:07:58;;;;;;;7.60;5.63;;;;;;;6.65;72.90;94052.28;4972244;28;20045;-76
2023/01/22 11:10:46;;;;;;;7.68;4.80;;;;;;;6.66;72.10;94061.81;4955821;28;20506;-76
2023/01/22 11:13:30;;;;;;;7.70;5.20;;;;;;;6.72;72.28;94055.41;4949792;28;20049;-76
2023/01/22 11:16:15;;;;;;;7.95;4.57;;;;;;;6.72;71.54;94052.75;4947676;28;20088;-76
2023/01/22 11:19:10;;;;;;;9.55;5.18;;;;;;;6.69;70.65;94061.25;4958967;28;20504;-76
2023/01/22 11:21:45;;;;;;;6.13;4.45;;;;;;;6.77;72.01;94044.75;4965572;28;20069;-76
2023/01/22 11:24:18;;;;;;;;;;;;;;;6.99;70.51;94056.66;4955983;28;20767;-77
2023/01/22 11:26:52;;;;;;;7.78;4.82;;;;;;;6.87;71.43;94054.41;4973875;28;19922;-77
2023/01/22 11:29:40;;;;;;;7.03;4.80;;;;;;;6.72;71.64;94044.03;4971547;28;20037;-78
2023/01/22 11:32:21;;;;;;;7.55;5.07;;;;;;;6.86;72.45;94044.91;4948674;28;20046;-78
2023/01/22 11:35:11;;;;;;;8.80;4.78;;;;;;;6.94;72.37;94051.44;4975503;28;20070;-77
2023/01/22 11:38:10;;;;;;;7.18;4.35;;;;;;;7.14;70.65;94051.94;4978552;28;20287;-79
2023/01/22 11:40:48;;;;;;;6.32;4.18;;;;;;;7.18;70.91;94058.25;4977029;28;20037;-77
2023/01/22 11:43:54;;;;;;;8.63;4.40;;;;;;;6.84;68.80;94042.56;4976524;28;20037;-77
2023/01/22 11:46:42;;;;;;;;;;;;;;;6.81;70.30;94048.41;4976495;28;20042;-78
2023/01/22 11:49:30;;;;;;;7.28;4.47;;;;;;;6.65;71.01;94048.88;4960340;28;19925;-78